Have a Safe July 4th! 

Flight Track Log - Related Links

Times and Time Zones

All times are in EDT time to prevent confusion due to time zone crossing. See the N9285G flight status page for this flight to view local times or setup timezone preferences in your user account.

Time Position Orientation Groundspeed Altitude Reporting Facility
EDT Latitude Longitude Course Direction KTS MPH feet Rate Location/Type
Thu 01:54:04 PM 27.9333 -82.7000 319° Northwest 85 98 700  Level Tampa TRACON
Thu 01:55:04 PM 27.9500 -82.7167 319° Northwest 93 107 1,400 714 Climbing Tampa TRACON
Thu 01:56:10 PM 27.9667 -82.7333 319° Northwest 98 113 2,200 667 Climbing Tampa TRACON
Thu 01:57:10 PM 27.9667 -82.7667 270° West 96 110 2,800 556 Climbing Tampa TRACON
Thu 01:57:58 PM 27.9667 -82.8000 270° West 94 108 3,200 611 Climbing Tampa TRACON
Thu 01:58:58 PM 27.9500 -82.8167 221° Southwest 95 109 3,900 476 Climbing Tampa TRACON
Thu 02:00:04 PM 27.9333 -82.8167 180° South 95 109 4,200 95 Climbing Tampa TRACON
Thu 02:01:04 PM 27.9000 -82.8333 204° Southwest 113 130 4,100 -100 Descending Tampa TRACON
Thu 02:02:04 PM 27.9000 -82.8667 270° West 110 127 4,000  Descending Tampa TRACON
Thu 02:03:10 PM 27.9167 -82.8833 319° Northwest 92 106 4,100 47 Climbing Tampa TRACON
Thu 02:04:11 PM 27.9167 -82.8667 90° East 75 86 4,100 50 Level Tampa TRACON
Thu 02:05:11 PM 27.9167 -82.8333 90° East 79 91 4,200 -50 Climbing Tampa TRACON
Thu 02:06:11 PM 27.9000 -82.8667 241° Southwest 111 128 4,000 -50 Descending Tampa TRACON
Thu 02:07:11 PM 27.9167 -82.9000 300° West 105 121 4,100 65 Climbing Tampa TRACON
Thu 02:07:43 PM 27.9139 -82.9039 231° Southwest 102 117 4,100 64 Level Miami Center
Thu 02:08:45 PM 27.9256 -82.8847 55° Northeast 102 117 4,200 48 Climbing Miami Center
Thu 02:09:48 PM 27.9153 -82.8636 119° Southeast 86 99 4,200 -60 Level Miami Center
Thu 02:12:05 PM 27.9000 -82.8833 229° Southwest 117 135 4,000 -61 Descending Tampa TRACON
Thu 02:13:05 PM 27.9167 -82.9000 319° Northwest 99 114 4,000 54 Level Tampa TRACON
Thu 02:13:57 PM 27.9181 -82.8872 83° East 102 117 4,100 48 Climbing Miami Center
Thu 02:15:11 PM 27.9167 -82.8500 92° East 77 89 4,100  Level Tampa TRACON
Thu 02:16:05 PM 27.9000 -82.8500 180° South 88 101 4,100 -54 Level Tampa TRACON
Thu 02:17:03 PM 27.9019 -82.8775 275° West 107 123 4,000  Descending Miami Center
Thu 02:19:08 PM 27.9225 -82.8606 36° Northeast 83 96 4,100 -96 Climbing Miami Center
Thu 02:20:10 PM 27.9453 -82.8464 29° Northeast 81 93 3,700 -595 Descending Miami Center
Thu 02:20:59 PM 27.9667 -82.8333 28° Northeast 83 96 3,000 -470 Descending Tampa TRACON
Thu 02:24:00 PM 27.9667 -82.7500 90° East 86 99 1,900 -373 Descending Tampa TRACON
Thu 02:25:00 PM 27.9833 -82.7167 60° Northeast 87 100 1,500 -400 Descending Tampa TRACON
Thu 02:26:00 PM 27.9833 -82.7000 90° East 82 94 1,100 -286 Descending Tampa TRACON
Thu 02:27:06 PM 27.9667 -82.6833 139° Southeast 76 87 900 -238 Descending Tampa TRACON
Thu 02:28:06 PM 27.9500 -82.7000 221° Southwest 84 97 600 -300 Descending Tampa TRACON
Thu 02:31:00 PM 27.9100 -82.6875 90° East  Level Estimated

Login

Don't have an account? Register now (free) for customized features, flight alerts, and more!